sensor_id;sensor_type;location;lat;lon;timestamp;temperature;humidity
73643;DHT22;61938;48.652;9.292;2024-02-15T00:00:15;9.80;99.90
73643;DHT22;61938;48.652;9.292;2024-02-15T00:02:42;9.80;99.90
73643;DHT22;61938;48.652;9.292;2024-02-15T00:05:10;9.80;99.90
73643;DHT22;61938;48.652;9.292;2024-02-15T00:07:36;9.80;99.90
73643;DHT22;61938;48.652;9.292;2024-02-15T00:10:01;9.80;99.90
73643;DHT22;61938;48.652;9.292;2024-02-15T00:12:29;9.80;99.90
73643;DHT22;61938;48.652;9.292;2024-02-15T00:14:55;9.80;99.90
73643;DHT22;61938;48.652;9.292;2024-02-15T00:17:24;9.80;99.90
73643;DHT22;61938;48.652;9.292;2024-02-15T00:19:49;9.80;99.90
73643;DHT22;61938;48.652;9.292;2024-02-15T00:22:15;9.70;99.90
73643;DHT22;61938;48.652;9.292;2024-02-15T00:24:40;9.70;99.90
73643;DHT22;61938;48.652;9.292;2024-02-15T00:27:07;9.70;99.90
73643;DHT22;61938;48.652;9.292;2024-02-15T00:29:32;9.70;99.90
73643;DHT22;61938;48.652;9.292;2024-02-15T00:32:00;9.70;99.90
73643;DHT22;61938;48.652;9.292;2024-02-15T00:34:25;9.70;99.90
73643;DHT22;61938;48.652;9.292;2024-02-15T00:36:52;9.70;99.90
73643;DHT22;61938;48.652;9.292;2024-02-15T00:39:17;9.70;99.90
73643;DHT22;61938;48.652;9.292;2024-02-15T00:41:46;9.70;99.90
73643;DHT22;61938;48.652;9.292;2024-02-15T00:44:12;9.70;99.90
73643;DHT22;61938;48.652;9.292;2024-02-15T00:46:38;9.60;99.90
73643;DHT22;61938;48.652;9.292;2024-02-15T00:49:04;9.60;99.90
73643;DHT22;61938;48.652;9.292;2024-02-15T00:51:32;9.60;99.90
73643;DHT22;61938;48.652;9.292;2024-02-15T00:53:59;9.60;99.90
73643;DHT22;61938;48.652;9.292;2024-02-15T00:56:25;9.60;99.90
73643;DHT22;61938;48.652;9.292;2024-02-15T00:58:51;9.60;99.90
73643;DHT22;61938;48.652;9.292;2024-02-15T01:01:17;9.60;99.90
73643;DHT22;61938;48.652;9.292;2024-02-15T01:03:42;9.60;99.90
73643;DHT22;61938;48.652;9.292;2024-02-15T01:06:08;9.60;99.90
73643;DHT22;61938;48.652;9.292;2024-02-15T01:08:34;9.60;99.90
73643;DHT22;61938;48.652;9.292;2024-02-15T01:10:59;9.60;99.90
73643;DHT22;61938;48.652;9.292;2024-02-15T01:13:25;9.60;99.90
73643;DHT22;61938;48.652;9.292;2024-02-15T01:15:50;9.50;99.90
73643;DHT22;61938;48.652;9.292;2024-02-15T01:18:16;9.50;99.90
73643;DHT22;61938;48.652;9.292;2024-02-15T01:20:41;9.50;99.90
73643;DHT22;61938;48.652;9.292;2024-02-15T01:23:07;9.50;99.90
73643;DHT22;61938;48.652;9.292;2024-02-15T01:25:33;9.50;99.90
73643;DHT22;61938;48.652;9.292;2024-02-15T01:27:59;9.50;99.90
73643;DHT22;61938;48.652;9.292;2024-02-15T01:30:27;9.50;99.90
73643;DHT22;61938;48.652;9.292;2024-02-15T01:32:54;9.50;99.90
73643;DHT22;61938;48.652;9.292;2024-02-15T01:35:20;9.50;99.90
73643;DHT22;61938;48.652;9.292;2024-02-15T01:37:45;9.80;99.90
73643;DHT22;61938;48.652;9.292;2024-02-15T01:40:11;9.50;99.90
73643;DHT22;61938;48.652;9.292;2024-02-15T01:42:38;9.50;99.90
73643;DHT22;61938;48.652;9.292;2024-02-15T01:45:04;9.50;99.90
73643;DHT22;61938;48.652;9.292;2024-02-15T01:47:31;9.40;99.90
73643;DHT22;61938;48.652;9.292;2024-02-15T01:49:57;9.40;99.90
73643;DHT22;61938;48.652;9.292;2024-02-15T01:52:23;9.40;99.90
73643;DHT22;61938;48.652;9.292;2024-02-15T01:54:51;9.40;99.90
73643;DHT22;61938;48.652;9.292;2024-02-15T01:57:18;9.40;99.90
73643;DHT22;61938;48.652;9.292;2024-02-15T01:59:46;9.40;99.90
73643;DHT22;61938;48.652;9.292;2024-02-15T02:02:13;9.40;99.90
73643;DHT22;61938;48.652;9.292;2024-02-15T02:04:40;9.40;99.90
73643;DHT22;61938;48.652;9.292;2024-02-15T02:07:07;9.40;99.90
73643;DHT22;61938;48.652;9.292;2024-02-15T02:09:32;9.40;99.90
73643;DHT22;61938;48.652;9.292;2024-02-15T02:11:58;9.30;99.90
73643;DHT22;61938;48.652;9.292;2024-02-15T02:14:25;9.30;99.90
73643;DHT22;61938;48.652;9.292;2024-02-15T02:16:50;9.30;99.90
73643;DHT22;61938;48.652;9.292;2024-02-15T02:19:17;9.30;99.90
73643;DHT22;61938;48.652;9.292;2024-02-15T02:21:43;9.30;99.90
73643;DHT22;61938;48.652;9.292;2024-02-15T02:24:21;9.20;99.90
73643;DHT22;61938;48.652;9.292;2024-02-15T02:26:47;9.20;99.90
73643;DHT22;61938;48.652;9.292;2024-02-15T02:29:15;9.10;99.90
73643;DHT22;61938;48.652;9.292;2024-02-15T02:31:41;9.10;99.90
73643;DHT22;61938;48.652;9.292;2024-02-15T02:34:08;9.00;99.90
73643;DHT22;61938;48.652;9.292;2024-02-15T02:36:34;9.00;99.90
73643;DHT22;61938;48.652;9.292;2024-02-15T02:38:59;8.90;99.90
73643;DHT22;61938;48.652;9.292;2024-02-15T02:41:27;8.90;99.90
73643;DHT22;61938;48.652;9.292;2024-02-15T02:43:54;8.90;99.90
73643;DHT22;61938;48.652;9.292;2024-02-15T02:46:20;8.80;99.90
73643;DHT22;61938;48.652;9.292;2024-02-15T02:48:46;8.80;99.90
73643;DHT22;61938;48.652;9.292;2024-02-15T02:51:12;8.90;99.90
73643;DHT22;61938;48.652;9.292;2024-02-15T02:53:37;8.70;99.90
73643;DHT22;61938;48.652;9.292;2024-02-15T02:56:03;8.70;99.90
73643;DHT22;61938;48.652;9.292;2024-02-15T02:58:29;8.70;99.90
73643;DHT22;61938;48.652;9.292;2024-02-15T03:00:55;8.60;99.90
73643;DHT22;61938;48.652;9.292;2024-02-15T03:03:21;8.60;99.90
73643;DHT22;61938;48.652;9.292;2024-02-15T03:05:49;8.50;99.90
73643;DHT22;61938;48.652;9.292;2024-02-15T03:08:15;8.50;99.90
73643;DHT22;61938;48.652;9.292;2024-02-15T03:10:42;8.50;99.90
73643;DHT22;61938;48.652;9.292;2024-02-15T03:13:08;8.50;99.90
73643;DHT22;61938;48.652;9.292;2024-02-15T03:15:35;8.50;99.90
73643;DHT22;61938;48.652;9.292;2024-02-15T03:18:00;8.40;99.90
73643;DHT22;61938;48.652;9.292;2024-02-15T03:20:32;8.40;99.90
73643;DHT22;61938;48.652;9.292;2024-02-15T03:22:59;8.30;99.90
73643;DHT22;61938;48.652;9.292;2024-02-15T03:25:26;8.30;99.90
73643;DHT22;61938;48.652;9.292;2024-02-15T03:27:58;8.30;99.90
73643;DHT22;61938;48.652;9.292;2024-02-15T03:30:25;8.20;99.90
73643;DHT22;61938;48.652;9.292;2024-02-15T03:32:52;8.20;99.90
73643;DHT22;61938;48.652;9.292;2024-02-15T03:35:18;8.10;99.90
73643;DHT22;61938;48.652;9.292;2024-02-15T03:37:44;8.10;99.90
73643;DHT22;61938;48.652;9.292;2024-02-15T03:40:10;8.00;99.90
73643;DHT22;61938;48.652;9.292;2024-02-15T03:42:36;8.00;99.90
73643;DHT22;61938;48.652;9.292;2024-02-15T03:45:05;7.90;99.90
73643;DHT22;61938;48.652;9.292;2024-02-15T03:47:32;7.90;99.90
73643;DHT22;61938;48.652;9.292;2024-02-15T03:49:59;7.80;99.90
73643;DHT22;61938;48.652;9.292;2024-02-15T03:52:24;7.80;99.90
73643;DHT22;61938;48.652;9.292;2024-02-15T03:54:50;7.80;99.90
73643;DHT22;61938;48.652;9.292;2024-02-15T03:57:15;7.80;99.90
73643;DHT22;61938;48.652;9.292;2024-02-15T03:59:42;7.70;99.90
73643;DHT22;61938;48.652;9.292;2024-02-15T04:02:08;7.70;99.90
73643;DHT22;61938;48.652;9.292;2024-02-15T04:04:38;7.70;99.90
73643;DHT22;61938;48.652;9.292;2024-02-15T04:07:07;7.60;99.90
73643;DHT22;61938;48.652;9.292;2024-02-15T04:09:33;7.60;99.90
73643;DHT22;61938;48.652;9.292;2024-02-15T04:12:01;7.60;99.90
73643;DHT22;61938;48.652;9.292;2024-02-15T04:14:26;7.50;99.90
73643;DHT22;61938;48.652;9.292;2024-02-15T04:16:52;7.50;99.90
73643;DHT22;61938;48.652;9.292;2024-02-15T04:19:18;7.50;99.90
73643;DHT22;61938;48.652;9.292;2024-02-15T04:21:47;7.40;99.90
73643;DHT22;61938;48.652;9.292;2024-02-15T04:24:13;7.40;99.90
73643;DHT22;61938;48.652;9.292;2024-02-15T04:26:39;7.40;99.90
73643;DHT22;61938;48.652;9.292;2024-02-15T04:29:05;7.40;99.90
73643;DHT22;61938;48.652;9.292;2024-02-15T04:31:34;7.40;99.90
73643;DHT22;61938;48.652;9.292;2024-02-15T04:34:02;7.40;99.90
73643;DHT22;61938;48.652;9.292;2024-02-15T04:36:28;7.40;99.90
73643;DHT22;61938;48.652;9.292;2024-02-15T04:38:59;7.30;99.90
73643;DHT22;61938;48.652;9.292;2024-02-15T04:41:26;7.30;99.90
73643;DHT22;61938;48.652;9.292;2024-02-15T04:43:52;7.30;99.90
73643;DHT22;61938;48.652;9.292;2024-02-15T04:46:18;7.40;99.90
73643;DHT22;61938;48.652;9.292;2024-02-15T04:48:50;7.40;99.90
73643;DHT22;61938;48.652;9.292;2024-02-15T04:51:16;7.40;99.90
73643;DHT22;61938;48.652;9.292;2024-02-15T04:53:42;7.40;99.90
73643;DHT22;61938;48.652;9.292;2024-02-15T04:56:08;7.40;99.90
73643;DHT22;61938;48.652;9.292;2024-02-15T04:58:40;7.40;99.90
73643;DHT22;61938;48.652;9.292;2024-02-15T05:01:16;7.40;99.90
73643;DHT22;61938;48.652;9.292;2024-02-15T05:03:46;7.40;99.90
73643;DHT22;61938;48.652;9.292;2024-02-15T05:06:12;7.40;99.90
73643;DHT22;61938;48.652;9.292;2024-02-15T05:08:39;7.40;99.90
73643;DHT22;61938;48.652;9.292;2024-02-15T05:11:11;7.50;99.90
73643;DHT22;61938;48.652;9.292;2024-02-15T05:13:43;7.50;99.90
73643;DHT22;61938;48.652;9.292;2024-02-15T05:16:09;7.50;99.90
73643;DHT22;61938;48.652;9.292;2024-02-15T05:18:35;7.50;99.90
73643;DHT22;61938;48.652;9.292;2024-02-15T05:21:01;7.40;99.90
73643;DHT22;61938;48.652;9.292;2024-02-15T05:23:27;7.40;99.90
73643;DHT22;61938;48.652;9.292;2024-02-15T05:25:52;7.40;99.90
73643;DHT22;61938;48.652;9.292;2024-02-15T05:28:19;7.40;99.90
73643;DHT22;61938;48.652;9.292;2024-02-15T05:33:38;7.40;99.90
73643;DHT22;61938;48.652;9.292;2024-02-15T05:36:12;7.40;99.90
73643;DHT22;61938;48.652;9.292;2024-02-15T05:38:38;7.40;99.90
73643;DHT22;61938;48.652;9.292;2024-02-15T05:41:03;7.40;99.90
73643;DHT22;61938;48.652;9.292;2024-02-15T05:43:29;7.40;99.90
73643;DHT22;61938;48.652;9.292;2024-02-15T05:45:55;7.40;99.90
73643;DHT22;61938;48.652;9.292;2024-02-15T05:48:23;7.40;99.90
73643;DHT22;61938;48.652;9.292;2024-02-15T05:50:48;7.40;99.90
73643;DHT22;61938;48.652;9.292;2024-02-15T05:53:14;7.30;99.90
73643;DHT22;61938;48.652;9.292;2024-02-15T05:55:49;7.30;99.90
73643;DHT22;61938;48.652;9.292;2024-02-15T05:58:15;7.30;99.90
73643;DHT22;61938;48.652;9.292;2024-02-15T06:00:41;7.30;99.90
73643;DHT22;61938;48.652;9.292;2024-02-15T06:03:07;7.30;99.90
73643;DHT22;61938;48.652;9.292;2024-02-15T06:05:35;7.20;99.90
73643;DHT22;61938;48.652;9.292;2024-02-15T06:08:00;7.20;99.90
73643;DHT22;61938;48.652;9.292;2024-02-15T06:10:26;7.20;99.90
73643;DHT22;61938;48.652;9.292;2024-02-15T06:12:52;7.20;99.90
73643;DHT22;61938;48.652;9.292;2024-02-15T06:15:17;7.10;99.90
73643;DHT22;61938;48.652;9.292;2024-02-15T06:17:43;7.10;99.90
73643;DHT22;61938;48.652;9.292;2024-02-15T06:20:11;7.10;99.90
73643;DHT22;61938;48.652;9.292;2024-02-15T06:22:40;7.00;99.90
73643;DHT22;61938;48.652;9.292;2024-02-15T06:25:06;7.00;99.90
73643;DHT22;61938;48.652;9.292;2024-02-15T06:27:31;7.00;99.90
73643;DHT22;61938;48.652;9.292;2024-02-15T06:29:58;7.00;99.90
73643;DHT22;61938;48.652;9.292;2024-02-15T06:32:43;7.00;99.90
73643;DHT22;61938;48.652;9.292;2024-02-15T06:35:44;6.90;99.90
73643;DHT22;61938;48.652;9.292;2024-02-15T06:38:28;7.00;99.90
73643;DHT22;61938;48.652;9.292;2024-02-15T06:41:13;6.90;99.90
73643;DHT22;61938;48.652;9.292;2024-02-15T06:43:38;6.90;99.90
73643;DHT22;61938;48.652;9.292;2024-02-15T06:46:08;6.90;99.90
73643;DHT22;61938;48.652;9.292;2024-02-15T06:48:35;6.90;99.90
73643;DHT22;61938;48.652;9.292;2024-02-15T06:51:02;6.90;99.90
73643;DHT22;61938;48.652;9.292;2024-02-15T06:53:29;6.90;99.90
73643;DHT22;61938;48.652;9.292;2024-02-15T06:55:55;6.90;99.90
73643;DHT22;61938;48.652;9.292;2024-02-15T06:58:21;6.80;99.90
73643;DHT22;61938;48.652;9.292;2024-02-15T07:00:48;6.80;99.90
73643;DHT22;61938;48.652;9.292;2024-02-15T07:03:15;6.80;99.90
73643;DHT22;61938;48.652;9.292;2024-02-15T07:05:42;6.80;99.90
73643;DHT22;61938;48.652;9.292;2024-02-15T07:08:08;6.80;99.90
73643;DHT22;61938;48.652;9.292;2024-02-15T07:10:37;6.80;99.90
73643;DHT22;61938;48.652;9.292;2024-02-15T07:13:04;6.80;99.90
73643;DHT22;61938;48.652;9.292;2024-02-15T07:15:29;6.70;99.90
73643;DHT22;61938;48.652;9.292;2024-02-15T07:17:57;6.80;99.90
73643;DHT22;61938;48.652;9.292;2024-02-15T07:20:23;6.80;99.90
73643;DHT22;61938;48.652;9.292;2024-02-15T07:22:49;6.70;99.90
73643;DHT22;61938;48.652;9.292;2024-02-15T07:25:14;6.70;99.90
73643;DHT22;61938;48.652;9.292;2024-02-15T07:27:40;6.70;99.90
73643;DHT22;61938;48.652;9.292;2024-02-15T07:30:06;6.70;99.90
73643;DHT22;61938;48.652;9.292;2024-02-15T07:32:34;6.80;99.90
73643;DHT22;61938;48.652;9.292;2024-02-15T07:35:00;6.80;99.90
73643;DHT22;61938;48.652;9.292;2024-02-15T07:37:26;6.80;99.90
73643;DHT22;61938;48.652;9.292;2024-02-15T07:39:52;6.90;99.90
73643;DHT22;61938;48.652;9.292;2024-02-15T07:42:18;6.90;99.90
73643;DHT22;61938;48.652;9.292;2024-02-15T07:44:43;6.90;99.90
73643;DHT22;61938;48.652;9.292;2024-02-15T07:47:09;6.90;99.90
73643;DHT22;61938;48.652;9.292;2024-02-15T07:49:36;6.90;99.90
73643;DHT22;61938;48.652;9.292;2024-02-15T07:52:02;7.00;99.90
73643;DHT22;61938;48.652;9.292;2024-02-15T07:54:30;7.00;99.90
73643;DHT22;61938;48.652;9.292;2024-02-15T07:56:56;7.00;99.90
73643;DHT22;61938;48.652;9.292;2024-02-15T07:59:21;7.10;99.90
73643;DHT22;61938;48.652;9.292;2024-02-15T08:01:47;7.10;99.90
73643;DHT22;61938;48.652;9.292;2024-02-15T08:04:18;7.20;99.90
73643;DHT22;61938;48.652;9.292;2024-02-15T08:06:43;7.20;99.90
73643;DHT22;61938;48.652;9.292;2024-02-15T08:09:09;7.30;99.90
73643;DHT22;61938;48.652;9.292;2024-02-15T08:11:39;7.40;99.90
73643;DHT22;61938;48.652;9.292;2024-02-15T08:14:06;7.40;99.90
73643;DHT22;61938;48.652;9.292;2024-02-15T08:16:33;7.50;99.90
73643;DHT22;61938;48.652;9.292;2024-02-15T08:19:00;7.50;99.90
73643;DHT22;61938;48.652;9.292;2024-02-15T08:21:27;7.50;99.90
73643;DHT22;61938;48.652;9.292;2024-02-15T08:23:55;7.60;99.90
73643;DHT22;61938;48.652;9.292;2024-02-15T08:26:21;7.70;99.90
73643;DHT22;61938;48.652;9.292;2024-02-15T08:28:46;7.70;99.90
73643;DHT22;61938;48.652;9.292;2024-02-15T08:31:12;7.80;99.90
73643;DHT22;61938;48.652;9.292;2024-02-15T08:33:40;7.80;99.90
73643;DHT22;61938;48.652;9.292;2024-02-15T08:36:06;7.90;99.90
73643;DHT22;61938;48.652;9.292;2024-02-15T08:38:32;7.90;99.90
73643;DHT22;61938;48.652;9.292;2024-02-15T08:40:59;8.00;99.90
73643;DHT22;61938;48.652;9.292;2024-02-15T08:43:25;8.00;99.90
73643;DHT22;61938;48.652;9.292;2024-02-15T08:45:50;8.10;99.90
73643;DHT22;61938;48.652;9.292;2024-02-15T08:48:16;8.10;99.90
73643;DHT22;61938;48.652;9.292;2024-02-15T08:50:41;8.20;99.90
73643;DHT22;61938;48.652;9.292;2024-02-15T08:53:07;8.20;99.90
73643;DHT22;61938;48.652;9.292;2024-02-15T08:55:33;8.30;99.90
73643;DHT22;61938;48.652;9.292;2024-02-15T08:58:01;8.30;99.90
73643;DHT22;61938;48.652;9.292;2024-02-15T09:00:27;8.40;99.90
73643;DHT22;61938;48.652;9.292;2024-02-15T09:02:53;8.40;99.90
73643;DHT22;61938;48.652;9.292;2024-02-15T09:05:19;8.40;99.90
73643;DHT22;61938;48.652;9.292;2024-02-15T09:07:47;8.50;99.90
73643;DHT22;61938;48.652;9.292;2024-02-15T09:10:14;8.40;99.90
73643;DHT22;61938;48.652;9.292;2024-02-15T09:12:41;8.50;99.90
73643;DHT22;61938;48.652;9.292;2024-02-15T09:15:08;8.50;99.90
73643;DHT22;61938;48.652;9.292;2024-02-15T09:17:34;8.60;99.90
73643;DHT22;61938;48.652;9.292;2024-02-15T09:20:08;8.60;99.90
73643;DHT22;61938;48.652;9.292;2024-02-15T09:22:34;8.70;99.90
73643;DHT22;61938;48.652;9.292;2024-02-15T09:25:02;8.70;99.90
73643;DHT22;61938;48.652;9.292;2024-02-15T09:27:27;8.70;99.90
73643;DHT22;61938;48.652;9.292;2024-02-15T09:29:53;8.80;99.90
73643;DHT22;61938;48.652;9.292;2024-02-15T09:32:18;8.80;99.90
73643;DHT22;61938;48.652;9.292;2024-02-15T09:34:44;8.80;99.90
73643;DHT22;61938;48.652;9.292;2024-02-15T09:37:09;8.90;99.90
73643;DHT22;61938;48.652;9.292;2024-02-15T09:39:37;8.90;99.90
73643;DHT22;61938;48.652;9.292;2024-02-15T09:42:03;8.90;99.90
73643;DHT22;61938;48.652;9.292;2024-02-15T09:44:29;9.00;99.90
73643;DHT22;61938;48.652;9.292;2024-02-15T09:47:05;9.00;99.90
73643;DHT22;61938;48.652;9.292;2024-02-15T09:49:35;9.10;99.90
73643;DHT22;61938;48.652;9.292;2024-02-15T09:52:03;9.10;99.90
73643;DHT22;61938;48.652;9.292;2024-02-15T09:54:30;9.20;99.90
73643;DHT22;61938;48.652;9.292;2024-02-15T09:56:57;9.20;99.90
73643;DHT22;61938;48.652;9.292;2024-02-15T09:59:26;9.20;99.90
73643;DHT22;61938;48.652;9.292;2024-02-15T10:01:58;9.20;99.90
73643;DHT22;61938;48.652;9.292;2024-02-15T10:04:24;9.30;99.90
73643;DHT22;61938;48.652;9.292;2024-02-15T10:06:51;9.30;99.90
73643;DHT22;61938;48.652;9.292;2024-02-15T10:09:26;9.40;99.90
73643;DHT22;61938;48.652;9.292;2024-02-15T10:12:00;9.40;99.90
73643;DHT22;61938;48.652;9.292;2024-02-15T10:14:28;9.40;99.90
73643;DHT22;61938;48.652;9.292;2024-02-15T10:16:55;9.50;99.90
73643;DHT22;61938;48.652;9.292;2024-02-15T10:19:21;9.50;99.90
73643;DHT22;61938;48.652;9.292;2024-02-15T10:21:52;9.60;99.90
73643;DHT22;61938;48.652;9.292;2024-02-15T10:24:21;9.60;99.90
73643;DHT22;61938;48.652;9.292;2024-02-15T10:26:49;9.80;99.90
73643;DHT22;61938;48.652;9.292;2024-02-15T10:29:14;9.90;99.90
73643;DHT22;61938;48.652;9.292;2024-02-15T10:31:56;9.90;99.90
73643;DHT22;61938;48.652;9.292;2024-02-15T10:34:24;10.00;99.90
73643;DHT22;61938;48.652;9.292;2024-02-15T10:37:10;10.10;99.90
73643;DHT22;61938;48.652;9.292;2024-02-15T10:39:36;10.10;99.90
73643;DHT22;61938;48.652;9.292;2024-02-15T10:42:03;10.20;99.90
73643;DHT22;61938;48.652;9.292;2024-02-15T10:44:29;10.30;99.90
73643;DHT22;61938;48.652;9.292;2024-02-15T10:46:54;10.30;99.90
73643;DHT22;61938;48.652;9.292;2024-02-15T10:49:23;10.40;99.90
73643;DHT22;61938;48.652;9.292;2024-02-15T10:51:59;10.40;99.90
73643;DHT22;61938;48.652;9.292;2024-02-15T10:54:51;10.50;99.90
73643;DHT22;61938;48.652;9.292;2024-02-15T10:57:20;10.60;99.90
73643;DHT22;61938;48.652;9.292;2024-02-15T10:59:57;10.80;99.90
73643;DHT22;61938;48.652;9.292;2024-02-15T11:02:28;10.90;99.90
73643;DHT22;61938;48.652;9.292;2024-02-15T11:04:59;11.10;99.90
73643;DHT22;61938;48.652;9.292;2024-02-15T11:07:28;11.10;99.90
73643;DHT22;61938;48.652;9.292;2024-02-15T11:09:58;11.20;99.90
73643;DHT22;61938;48.652;9.292;2024-02-15T11:12:24;11.30;99.90
73643;DHT22;61938;48.652;9.292;2024-02-15T11:14:53;11.40;99.90
73643;DHT22;61938;48.652;9.292;2024-02-15T11:20:09;11.40;99.90
73643;DHT22;61938;48.652;9.292;2024-02-15T11:22:38;11.60;99.90
73643;DHT22;61938;48.652;9.292;2024-02-15T11:25:08;11.60;99.90
73643;DHT22;61938;48.652;9.292;2024-02-15T11:27:40;11.60;99.90
73643;DHT22;61938;48.652;9.292;2024-02-15T11:30:06;11.60;99.90
73643;DHT22;61938;48.652;9.292;2024-02-15T11:32:45;11.70;99.90
73643;DHT22;61938;48.652;9.292;2024-02-15T11:35:22;11.70;99.90
73643;DHT22;61938;48.652;9.292;2024-02-15T11:40:19;11.80;99.90
73643;DHT22;61938;48.652;9.292;2024-02-15T11:42:45;11.90;99.90
73643;DHT22;61938;48.652;9.292;2024-02-15T11:45:12;12.00;99.90
73643;DHT22;61938;48.652;9.292;2024-02-15T11:47:39;12.20;99.90
73643;DHT22;61938;48.652;9.292;2024-02-15T11:50:09;12.20;99.90
73643;DHT22;61938;48.652;9.292;2024-02-15T11:52:40;12.20;99.90
73643;DHT22;61938;48.652;9.292;2024-02-15T11:55:07;12.20;99.90
73643;DHT22;61938;48.652;9.292;2024-02-15T11:57:41;12.30;99.90
73643;DHT22;61938;48.652;9.292;2024-02-15T12:00:25;12.20;99.90
73643;DHT22;61938;48.652;9.292;2024-02-15T12:03:09;12.30;99.90
73643;DHT22;61938;48.652;9.292;2024-02-15T12:05:56;12.30;99.90
73643;DHT22;61938;48.652;9.292;2024-02-15T12:08:44;12.30;99.90
73643;DHT22;61938;48.652;9.292;2024-02-15T12:11:28;12.40;99.90
73643;DHT22;61938;48.652;9.292;2024-02-15T12:14:13;12.40;99.90
73643;DHT22;61938;48.652;9.292;2024-02-15T12:17:06;12.50;99.90
73643;DHT22;61938;48.652;9.292;2024-02-15T12:19:51;12.50;99.90
73643;DHT22;61938;48.652;9.292;2024-02-15T12:22:28;12.50;99.90
73643;DHT22;61938;48.652;9.292;2024-02-15T12:24:59;12.60;99.90
73643;DHT22;61938;48.652;9.292;2024-02-15T12:27:26;12.60;99.90
73643;DHT22;61938;48.652;9.292;2024-02-15T12:29:53;12.60;99.90
73643;DHT22;61938;48.652;9.292;2024-02-15T12:32:23;12.60;99.90
73643;DHT22;61938;48.652;9.292;2024-02-15T12:34:49;12.70;99.90
73643;DHT22;61938;48.652;9.292;2024-02-15T12:37:18;12.70;99.90
73643;DHT22;61938;48.652;9.292;2024-02-15T12:39:44;12.70;99.90
73643;DHT22;61938;48.652;9.292;2024-02-15T12:42:09;12.70;99.90
73643;DHT22;61938;48.652;9.292;2024-02-15T12:44:36;12.80;99.90
73643;DHT22;61938;48.652;9.292;2024-02-15T12:47:02;12.80;99.90
73643;DHT22;61938;48.652;9.292;2024-02-15T12:49:29;12.80;99.90
73643;DHT22;61938;48.652;9.292;2024-02-15T12:55:11;12.90;99.90
73643;DHT22;61938;48.652;9.292;2024-02-15T12:57:36;12.90;99.90
73643;DHT22;61938;48.652;9.292;2024-02-15T13:00:10;12.90;99.90
73643;DHT22;61938;48.652;9.292;2024-02-15T13:02:44;12.90;99.90
73643;DHT22;61938;48.652;9.292;2024-02-15T13:05:09;13.00;99.90
73643;DHT22;61938;48.652;9.292;2024-02-15T13:07:38;13.00;99.90
73643;DHT22;61938;48.652;9.292;2024-02-15T13:10:04;13.10;99.90
73643;DHT22;61938;48.652;9.292;2024-02-15T13:12:35;13.00;99.90
73643;DHT22;61938;48.652;9.292;2024-02-15T13:15:05;13.10;99.90
73643;DHT22;61938;48.652;9.292;2024-02-15T13:17:32;13.10;99.90
73643;DHT22;61938;48.652;9.292;2024-02-15T13:19:59;13.10;99.90
73643;DHT22;61938;48.652;9.292;2024-02-15T13:22:36;13.10;99.90
73643;DHT22;61938;48.652;9.292;2024-02-15T13:25:01;13.10;99.90
73643;DHT22;61938;48.652;9.292;2024-02-15T13:27:29;13.10;99.90
73643;DHT22;61938;48.652;9.292;2024-02-15T13:29:54;13.10;99.90
73643;DHT22;61938;48.652;9.292;2024-02-15T13:32:20;13.10;99.90
73643;DHT22;61938;48.652;9.292;2024-02-15T13:34:49;13.30;99.90
73643;DHT22;61938;48.652;9.292;2024-02-15T13:37:21;13.30;99.90
73643;DHT22;61938;48.652;9.292;2024-02-15T13:39:48;13.40;99.90
73643;DHT22;61938;48.652;9.292;2024-02-15T13:42:14;13.40;99.90
73643;DHT22;61938;48.652;9.292;2024-02-15T13:44:40;13.40;99.90
73643;DHT22;61938;48.652;9.292;2024-02-15T13:47:06;13.40;99.90
73643;DHT22;61938;48.652;9.292;2024-02-15T13:49:31;13.40;99.90
73643;DHT22;61938;48.652;9.292;2024-02-15T13:52:00;13.40;99.90
73643;DHT22;61938;48.652;9.292;2024-02-15T13:54:30;13.40;99.90
73643;DHT22;61938;48.652;9.292;2024-02-15T13:56:56;13.40;99.90
73643;DHT22;61938;48.652;9.292;2024-02-15T13:59:22;13.40;99.90
73643;DHT22;61938;48.652;9.292;2024-02-15T14:01:48;13.40;99.90
73643;DHT22;61938;48.652;9.292;2024-02-15T14:04:15;13.40;99.90
73643;DHT22;61938;48.652;9.292;2024-02-15T14:06:41;13.50;99.90
73643;DHT22;61938;48.652;9.292;2024-02-15T14:09:12;13.50;99.90
73643;DHT22;61938;48.652;9.292;2024-02-15T14:11:38;13.40;99.90
73643;DHT22;61938;48.652;9.292;2024-02-15T14:14:05;13.50;99.90
73643;DHT22;61938;48.652;9.292;2024-02-15T14:16:31;13.50;99.90
73643;DHT22;61938;48.652;9.292;2024-02-15T14:18:56;13.50;99.90
73643;DHT22;61938;48.652;9.292;2024-02-15T14:21:22;13.50;99.90
73643;DHT22;61938;48.652;9.292;2024-02-15T14:23:48;13.50;99.90
73643;DHT22;61938;48.652;9.292;2024-02-15T14:26:15;13.50;99.90
73643;DHT22;61938;48.652;9.292;2024-02-15T14:28:42;13.60;99.90
73643;DHT22;61938;48.652;9.292;2024-02-15T14:31:10;13.60;99.90
73643;DHT22;61938;48.652;9.292;2024-02-15T14:33:55;13.60;99.90
73643;DHT22;61938;48.652;9.292;2024-02-15T14:36:20;13.70;99.90
73643;DHT22;61938;48.652;9.292;2024-02-15T14:38:46;13.70;99.90
73643;DHT22;61938;48.652;9.292;2024-02-15T14:41:12;13.80;99.90
73643;DHT22;61938;48.652;9.292;2024-02-15T14:43:38;13.80;99.90
73643;DHT22;61938;48.652;9.292;2024-02-15T14:46:03;13.80;99.90
73643;DHT22;61938;48.652;9.292;2024-02-15T14:48:31;13.80;99.90
73643;DHT22;61938;48.652;9.292;2024-02-15T14:50:57;13.90;99.90
73643;DHT22;61938;48.652;9.292;2024-02-15T14:53:26;13.90;99.90
73643;DHT22;61938;48.652;9.292;2024-02-15T14:55:53;13.80;99.90
73643;DHT22;61938;48.652;9.292;2024-02-15T14:58:20;13.80;99.90
73643;DHT22;61938;48.652;9.292;2024-02-15T15:00:46;13.90;99.90
73643;DHT22;61938;48.652;9.292;2024-02-15T15:03:12;13.90;99.90
73643;DHT22;61938;48.652;9.292;2024-02-15T15:05:42;13.90;99.90
73643;DHT22;61938;48.652;9.292;2024-02-15T15:08:26;13.90;99.90
73643;DHT22;61938;48.652;9.292;2024-02-15T15:11:10;14.00;99.90
73643;DHT22;61938;48.652;9.292;2024-02-15T15:13:54;14.00;99.90
73643;DHT22;61938;48.652;9.292;2024-02-15T15:16:20;14.00;99.90
73643;DHT22;61938;48.652;9.292;2024-02-15T15:18:48;14.00;99.90
73643;DHT22;61938;48.652;9.292;2024-02-15T15:21:16;14.00;99.90
73643;DHT22;61938;48.652;9.292;2024-02-15T15:23:42;14.00;99.90
73643;DHT22;61938;48.652;9.292;2024-02-15T15:26:08;14.00;99.90
73643;DHT22;61938;48.652;9.292;2024-02-15T15:28:37;14.00;99.90
73643;DHT22;61938;48.652;9.292;2024-02-15T15:31:02;14.00;99.90
73643;DHT22;61938;48.652;9.292;2024-02-15T15:33:30;14.00;99.90
73643;DHT22;61938;48.652;9.292;2024-02-15T15:35:58;14.00;99.90
73643;DHT22;61938;48.652;9.292;2024-02-15T15:38:24;14.00;99.90
73643;DHT22;61938;48.652;9.292;2024-02-15T15:40:52;14.00;99.90
73643;DHT22;61938;48.652;9.292;2024-02-15T15:43:18;14.10;99.90
73643;DHT22;61938;48.652;9.292;2024-02-15T15:45:45;14.10;99.90
73643;DHT22;61938;48.652;9.292;2024-02-15T15:48:10;14.10;99.90
73643;DHT22;61938;48.652;9.292;2024-02-15T15:50:37;14.10;99.90
73643;DHT22;61938;48.652;9.292;2024-02-15T15:53:04;14.10;99.90
73643;DHT22;61938;48.652;9.292;2024-02-15T15:55:29;14.00;99.90